Cross Creek, Florida
Current Conditions -  °F | °C
As of 8:53 AM on Monday 20 Oct 2014 (Local Time) from KGNV Reporting Station
Clear Clear  
Wind Chill: 67°   Ceiling: Unl
Heat Index: 67°   Visibility: 10mi
Dew Point: 61°   Wind: 5mph
Humidity: 81%   Direction: 50°NE
Pressure: 30.08"   Gusts: NA
Location:  29.5572°N, 82.1051°W
Report Text: KGNV 201253Z 05004KT 10SM CLR 19/16 A3008 RMK AO2 SLP185 T01940161
Loading
Personal Weather Stations






























Interactive Weather Map
Tropical Storm Tracking
New forecast layout! Learn more

10-Day Weather Forecast

Advertisements
Track Severe Weather on mobile